CYAZ/YAZ METAR and TAF weather

Enter ICAO airport designator
Station Type Date Time Source
CYAZ METAR 2020/04/06 01:00 UTC NOAA

CYAZ 060100Z 29012KT 15SM FEW060 10/01 A2967 RMK SC1 SC TR LAST STFD OBS/NEXT 061300UTC SLP050


Station Type Date Time Source
CYAZ Decoded METAR 2020/04/06 01:00 UTC NOAA

Tofino Airport, Canada (CYAZ) 49-05N 125-46W
Apr 05, 2020 - 09:00 PM EDT / 2020.04.06 0100 UTC
Wind: from the WNW (290 degrees) at 14 MPH (12 KT):0
Visibility: 15 mile(s):0
Sky conditions: mostly clear
Temperature: 50 F (10 C)
Dew Point: 33 F (1 C)
Relative Humidity: 53%
Pressure (altimeter): 29.67 in. Hg (1004 hPa)
ob: CYAZ 060100Z 29012KT 15SM FEW060 10/01 A2967 RMK SC1 SC TR LAST STFD OBS/NEXT 061300UTC SLP050
cycle: 1

Station Type Date Time Source
CYAZ TAF 2020/04/05 19:00 UTC NOAA

TAF CYAZ 051838Z 0519/0601 20005KT P6SM FEW040
BECMG 0520/0522 28010KT
RMK NXT FCST WILL BE ISSUED AT 061445Z

Example: see airport list